sensor_id;sensor_type;location;lat;lon;timestamp;P1;durP1;ratioP1;P2;durP2;ratioP2
21550;SDS011;10936;49.836;7.078;2023-04-15T05:01:42;14.33;;;2.53;;
21550;SDS011;10936;49.836;7.078;2023-04-15T05:04:08;10.23;;;2.40;;
21550;SDS011;10936;49.836;7.078;2023-04-15T05:06:33;12.27;;;3.60;;
21550;SDS011;10936;49.836;7.078;2023-04-15T05:09:00;27.73;;;9.67;;
21550;SDS011;10936;49.836;7.078;2023-04-15T05:11:27;45.50;;;13.30;;
21550;SDS011;10936;49.836;7.078;2023-04-15T05:13:52;57.60;;;15.13;;
21550;SDS011;10936;49.836;7.078;2023-04-15T05:16:18;76.50;;;21.70;;
21550;SDS011;10936;49.836;7.078;2023-04-15T05:18:44;48.10;;;14.10;;
21550;SDS011;10936;49.836;7.078;2023-04-15T05:21:10;62.77;;;16.90;;
21550;SDS011;10936;49.836;7.078;2023-04-15T05:23:36;68.03;;;20.43;;
21550;SDS011;10936;49.836;7.078;2023-04-15T05:26:02;81.80;;;25.70;;
21550;SDS011;10936;49.836;7.078;2023-04-15T05:28:28;47.93;;;16.80;;
21550;SDS011;10936;49.836;7.078;2023-04-15T05:30:53;18.87;;;7.60;;
21550;SDS011;10936;49.836;7.078;2023-04-15T05:33:19;9.20;;;4.20;;
21550;SDS011;10936;49.836;7.078;2023-04-15T05:35:44;18.47;;;7.97;;
21550;SDS011;10936;49.836;7.078;2023-04-15T05:38:10;15.27;;;7.07;;
21550;SDS011;10936;49.836;7.078;2023-04-15T05:40:36;19.20;;;8.07;;
21550;SDS011;10936;49.836;7.078;2023-04-15T05:43:01;13.33;;;5.00;;
21550;SDS011;10936;49.836;7.078;2023-04-15T05:45:27;9.93;;;3.73;;
21550;SDS011;10936;49.836;7.078;2023-04-15T05:47:52;13.80;;;5.77;;
21550;SDS011;10936;49.836;7.078;2023-04-15T05:50:18;8.83;;;4.87;;
21550;SDS011;10936;49.836;7.078;2023-04-15T05:52:45;7.37;;;2.80;;
21550;SDS011;10936;49.836;7.078;2023-04-15T05:55:10;7.93;;;2.77;;
21550;SDS011;10936;49.836;7.078;2023-04-15T05:57:36;32.27;;;8.67;;
21550;SDS011;10936;49.836;7.078;2023-04-15T06:00:02;20.47;;;7.03;;
21550;SDS011;10936;49.836;7.078;2023-04-15T06:02:29;18.37;;;6.00;;
21550;SDS011;10936;49.836;7.078;2023-04-15T06:04:55;19.00;;;6.37;;
21550;SDS011;10936;49.836;7.078;2023-04-15T06:07:21;18.47;;;5.70;;
21550;SDS011;10936;49.836;7.078;2023-04-15T06:09:47;3.60;;;2.07;;
21550;SDS011;10936;49.836;7.078;2023-04-15T06:12:14;7.97;;;1.70;;
21550;SDS011;10936;49.836;7.078;2023-04-15T06:14:40;5.67;;;1.90;;
21550;SDS011;10936;49.836;7.078;2023-04-15T06:17:05;6.17;;;1.97;;
21550;SDS011;10936;49.836;7.078;2023-04-15T06:19:32;9.27;;;1.80;;
21550;SDS011;10936;49.836;7.078;2023-04-15T06:21:57;4.40;;;1.75;;
21550;SDS011;10936;49.836;7.078;2023-04-15T06:24:23;4.18;;;1.88;;
21550;SDS011;10936;49.836;7.078;2023-04-15T06:26:49;5.50;;;2.00;;
21550;SDS011;10936;49.836;7.078;2023-04-15T06:29:14;5.32;;;1.45;;
21550;SDS011;10936;49.836;7.078;2023-04-15T06:31:40;9.82;;;2.05;;
21550;SDS011;10936;49.836;7.078;2023-04-15T06:34:05;4.65;;;1.77;;
21550;SDS011;10936;49.836;7.078;2023-04-15T06:36:31;6.67;;;2.27;;
21550;SDS011;10936;49.836;7.078;2023-04-15T06:38:57;5.87;;;1.40;;
21550;SDS011;10936;49.836;7.078;2023-04-15T06:41:23;4.97;;;1.77;;
21550;SDS011;10936;49.836;7.078;2023-04-15T06:43:48;4.80;;;1.77;;
21550;SDS011;10936;49.836;7.078;2023-04-15T06:46:14;2.90;;;1.30;;
21550;SDS011;10936;49.836;7.078;2023-04-15T06:48:40;5.47;;;2.00;;
21550;SDS011;10936;49.836;7.078;2023-04-15T06:51:06;4.78;;;1.48;;
21550;SDS011;10936;49.836;7.078;2023-04-15T06:53:32;6.32;;;1.40;;
21550;SDS011;10936;49.836;7.078;2023-04-15T06:55:59;5.72;;;1.90;;
21550;SDS011;10936;49.836;7.078;2023-04-15T06:58:25;3.80;;;1.40;;
21550;SDS011;10936;49.836;7.078;2023-04-15T07:00:51;8.55;;;1.50;;
21550;SDS011;10936;49.836;7.078;2023-04-15T07:03:16;4.03;;;1.60;;
21550;SDS011;10936;49.836;7.078;2023-04-15T07:05:42;5.23;;;1.50;;
21550;SDS011;10936;49.836;7.078;2023-04-15T07:08:09;6.53;;;1.73;;
21550;SDS011;10936;49.836;7.078;2023-04-15T07:10:34;7.30;;;1.60;;
21550;SDS011;10936;49.836;7.078;2023-04-15T07:13:00;6.50;;;2.33;;
21550;SDS011;10936;49.836;7.078;2023-04-15T07:15:26;5.57;;;1.70;;
21550;SDS011;10936;49.836;7.078;2023-04-15T07:17:52;7.57;;;1.70;;
21550;SDS011;10936;49.836;7.078;2023-04-15T07:20:18;5.83;;;1.50;;
21550;SDS011;10936;49.836;7.078;2023-04-15T07:22:44;3.17;;;1.37;;
21550;SDS011;10936;49.836;7.078;2023-04-15T07:25:09;5.23;;;1.57;;
21550;SDS011;10936;49.836;7.078;2023-04-15T07:27:35;7.05;;;1.52;;
21550;SDS011;10936;49.836;7.078;2023-04-15T07:30:01;4.80;;;1.70;;
21550;SDS011;10936;49.836;7.078;2023-04-15T07:32:26;4.75;;;2.08;;
21550;SDS011;10936;49.836;7.078;2023-04-15T07:34:52;6.00;;;1.88;;
21550;SDS011;10936;49.836;7.078;2023-04-15T07:37:17;5.82;;;1.67;;
21550;SDS011;10936;49.836;7.078;2023-04-15T07:39:43;6.13;;;2.22;;
21550;SDS011;10936;49.836;7.078;2023-04-15T07:42:09;4.95;;;1.42;;
21550;SDS011;10936;49.836;7.078;2023-04-15T07:44:35;5.00;;;1.45;;
21550;SDS011;10936;49.836;7.078;2023-04-15T07:47:01;8.65;;;2.10;;
21550;SDS011;10936;49.836;7.078;2023-04-15T07:49:27;6.28;;;1.70;;
21550;SDS011;10936;49.836;7.078;2023-04-15T07:51:53;4.70;;;1.70;;
21550;SDS011;10936;49.836;7.078;2023-04-15T07:54:18;4.63;;;2.20;;
21550;SDS011;10936;49.836;7.078;2023-04-15T07:56:44;5.72;;;1.63;;
21550;SDS011;10936;49.836;7.078;2023-04-15T07:59:10;5.75;;;1.90;;
21550;SDS011;10936;49.836;7.078;2023-04-15T08:01:35;6.40;;;1.88;;
21550;SDS011;10936;49.836;7.078;2023-04-15T08:04:01;5.38;;;1.85;;
21550;SDS011;10936;49.836;7.078;2023-04-15T08:06:27;6.88;;;1.77;;
21550;SDS011;10936;49.836;7.078;2023-04-15T08:08:53;4.35;;;1.63;;
21550;SDS011;10936;49.836;7.078;2023-04-15T08:11:19;5.55;;;2.03;;
21550;SDS011;10936;49.836;7.078;2023-04-15T08:13:45;3.00;;;1.52;;
21550;SDS011;10936;49.836;7.078;2023-04-15T08:18:50;5.07;;;1.67;;
21550;SDS011;10936;49.836;7.078;2023-04-15T08:21:17;4.93;;;1.40;;
21550;SDS011;10936;49.836;7.078;2023-04-15T08:23:44;3.53;;;1.70;;
21550;SDS011;10936;49.836;7.078;2023-04-15T08:26:11;5.80;;;1.65;;
21550;SDS011;10936;49.836;7.078;2023-04-15T08:28:38;3.67;;;1.52;;
21550;SDS011;10936;49.836;7.078;2023-04-15T08:31:05;4.70;;;1.75;;
21550;SDS011;10936;49.836;7.078;2023-04-15T08:33:37;3.75;;;1.50;;
21550;SDS011;10936;49.836;7.078;2023-04-15T08:36:02;5.25;;;1.90;;
21550;SDS011;10936;49.836;7.078;2023-04-15T08:38:28;4.18;;;1.50;;
21550;SDS011;10936;49.836;7.078;2023-04-15T08:40:54;4.97;;;1.73;;
21550;SDS011;10936;49.836;7.078;2023-04-15T08:43:23;3.65;;;1.40;;
21550;SDS011;10936;49.836;7.078;2023-04-15T08:45:53;4.05;;;1.73;;
21550;SDS011;10936;49.836;7.078;2023-04-15T08:48:20;6.95;;;1.80;;
21550;SDS011;10936;49.836;7.078;2023-04-15T08:50:46;3.72;;;1.63;;
21550;SDS011;10936;49.836;7.078;2023-04-15T08:53:13;5.45;;;1.80;;
21550;SDS011;10936;49.836;7.078;2023-04-15T08:55:43;3.03;;;1.48;;
21550;SDS011;10936;49.836;7.078;2023-04-15T08:58:11;3.25;;;1.50;;
21550;SDS011;10936;49.836;7.078;2023-04-15T09:00:37;3.97;;;1.73;;
21550;SDS011;10936;49.836;7.078;2023-04-15T09:03:04;7.07;;;2.08;;
21550;SDS011;10936;49.836;7.078;2023-04-15T09:05:37;5.15;;;1.65;;
21550;SDS011;10936;49.836;7.078;2023-04-15T09:08:03;3.45;;;1.52;;
21550;SDS011;10936;49.836;7.078;2023-04-15T09:10:29;3.83;;;1.60;;
21550;SDS011;10936;49.836;7.078;2023-04-15T09:12:56;8.32;;;2.05;;
21550;SDS011;10936;49.836;7.078;2023-04-15T09:15:25;5.63;;;1.58;;
21550;SDS011;10936;49.836;7.078;2023-04-15T09:17:54;4.10;;;2.10;;
21550;SDS011;10936;49.836;7.078;2023-04-15T09:20:20;5.35;;;1.90;;
21550;SDS011;10936;49.836;7.078;2023-04-15T09:22:47;6.00;;;2.10;;
21550;SDS011;10936;49.836;7.078;2023-04-15T09:27:47;3.80;;;1.75;;
21550;SDS011;10936;49.836;7.078;2023-04-15T09:30:14;4.28;;;1.58;;
21550;SDS011;10936;49.836;7.078;2023-04-15T09:32:50;6.25;;;2.40;;
21550;SDS011;10936;49.836;7.078;2023-04-15T09:35:23;7.50;;;2.22;;
21550;SDS011;10936;49.836;7.078;2023-04-15T09:37:51;3.70;;;1.58;;
21550;SDS011;10936;49.836;7.078;2023-04-15T09:40:30;5.78;;;1.80;;
21550;SDS011;10936;49.836;7.078;2023-04-15T09:42:59;5.17;;;2.00;;
21550;SDS011;10936;49.836;7.078;2023-04-15T09:45:29;9.27;;;2.17;;
21550;SDS011;10936;49.836;7.078;2023-04-15T09:47:59;5.97;;;2.20;;
21550;SDS011;10936;49.836;7.078;2023-04-15T09:50:39;7.43;;;1.70;;
21550;SDS011;10936;49.836;7.078;2023-04-15T09:53:07;6.03;;;1.90;;
21550;SDS011;10936;49.836;7.078;2023-04-15T09:55:34;4.77;;;1.83;;
21550;SDS011;10936;49.836;7.078;2023-04-15T09:58:00;6.63;;;2.20;;
21550;SDS011;10936;49.836;7.078;2023-04-15T10:00:26;4.10;;;2.47;;
21550;SDS011;10936;49.836;7.078;2023-04-15T10:02:53;8.50;;;2.57;;
21550;SDS011;10936;49.836;7.078;2023-04-15T10:05:19;3.90;;;1.87;;
21550;SDS011;10936;49.836;7.078;2023-04-15T10:07:47;9.57;;;2.57;;
21550;SDS011;10936;49.836;7.078;2023-04-15T10:10:13;5.57;;;2.60;;
21550;SDS011;10936;49.836;7.078;2023-04-15T10:12:39;6.60;;;2.50;;
21550;SDS011;10936;49.836;7.078;2023-04-15T10:15:06;7.73;;;2.70;;
21550;SDS011;10936;49.836;7.078;2023-04-15T10:17:40;6.37;;;2.80;;
21550;SDS011;10936;49.836;7.078;2023-04-15T10:20:08;8.83;;;2.80;;
21550;SDS011;10936;49.836;7.078;2023-04-15T10:22:36;7.50;;;3.20;;
21550;SDS011;10936;49.836;7.078;2023-04-15T10:25:02;7.40;;;3.33;;
21550;SDS011;10936;49.836;7.078;2023-04-15T10:27:29;5.60;;;3.03;;
21550;SDS011;10936;49.836;7.078;2023-04-15T10:29:55;6.00;;;3.60;;
21550;SDS011;10936;49.836;7.078;2023-04-15T10:32:23;8.10;;;3.40;;
21550;SDS011;10936;49.836;7.078;2023-04-15T10:34:49;5.27;;;3.17;;
21550;SDS011;10936;49.836;7.078;2023-04-15T10:37:36;8.77;;;3.50;;
21550;SDS011;10936;49.836;7.078;2023-04-15T10:42:56;8.13;;;3.00;;
21550;SDS011;10936;49.836;7.078;2023-04-15T10:48:03;6.13;;;2.80;;
21550;SDS011;10936;49.836;7.078;2023-04-15T10:50:31;7.53;;;2.77;;
21550;SDS011;10936;49.836;7.078;2023-04-15T10:52:57;3.57;;;2.67;;
21550;SDS011;10936;49.836;7.078;2023-04-15T10:55:26;6.47;;;3.03;;
21550;SDS011;10936;49.836;7.078;2023-04-15T10:57:57;7.63;;;3.00;;
21550;SDS011;10936;49.836;7.078;2023-04-15T11:00:25;8.03;;;3.53;;
21550;SDS011;10936;49.836;7.078;2023-04-15T11:02:55;4.47;;;3.13;;
21550;SDS011;10936;49.836;7.078;2023-04-15T11:06:08;11.80;;;3.50;;
21550;SDS011;10936;49.836;7.078;2023-04-15T11:08:15;9.10;;;3.70;;
21550;SDS011;10936;49.836;7.078;2023-04-15T11:15:41;8.97;;;3.67;;
21550;SDS011;10936;49.836;7.078;2023-04-15T11:18:09;5.43;;;3.27;;
21550;SDS011;10936;49.836;7.078;2023-04-15T11:20:36;9.30;;;3.70;;
21550;SDS011;10936;49.836;7.078;2023-04-15T11:23:03;6.97;;;3.53;;
21550;SDS011;10936;49.836;7.078;2023-04-15T11:25:32;7.20;;;3.80;;
21550;SDS011;10936;49.836;7.078;2023-04-15T11:28:03;9.60;;;3.60;;
21550;SDS011;10936;49.836;7.078;2023-04-15T11:30:32;9.30;;;3.53;;
21550;SDS011;10936;49.836;7.078;2023-04-15T11:33:03;7.00;;;3.30;;
21550;SDS011;10936;49.836;7.078;2023-04-15T11:35:31;9.30;;;3.70;;
21550;SDS011;10936;49.836;7.078;2023-04-15T11:38:02;6.87;;;3.13;;
21550;SDS011;10936;49.836;7.078;2023-04-15T11:40:29;5.57;;;3.20;;
21550;SDS011;10936;49.836;7.078;2023-04-15T11:43:04;7.93;;;3.30;;
21550;SDS011;10936;49.836;7.078;2023-04-15T11:48:13;5.73;;;3.63;;
21550;SDS011;10936;49.836;7.078;2023-04-15T11:50:39;6.47;;;3.00;;
21550;SDS011;10936;49.836;7.078;2023-04-15T11:53:05;6.33;;;2.30;;
21550;SDS011;10936;49.836;7.078;2023-04-15T12:00:53;4.93;;;1.87;;
21550;SDS011;10936;49.836;7.078;2023-04-15T12:06:10;7.17;;;2.43;;
21550;SDS011;10936;49.836;7.078;2023-04-15T12:08:59;5.40;;;2.77;;
21550;SDS011;10936;49.836;7.078;2023-04-15T12:14:04;4.03;;;2.00;;
21550;SDS011;10936;49.836;7.078;2023-04-15T12:16:36;5.17;;;2.07;;
21550;SDS011;10936;49.836;7.078;2023-04-15T12:19:05;2.33;;;1.70;;
21550;SDS011;10936;49.836;7.078;2023-04-15T12:21:33;4.93;;;2.20;;
21550;SDS011;10936;49.836;7.078;2023-04-15T12:24:01;3.90;;;2.40;;
21550;SDS011;10936;49.836;7.078;2023-04-15T12:26:35;5.30;;;2.23;;
21550;SDS011;10936;49.836;7.078;2023-04-15T12:29:07;2.83;;;1.90;;
21550;SDS011;10936;49.836;7.078;2023-04-15T12:31:33;4.90;;;2.50;;
21550;SDS011;10936;49.836;7.078;2023-04-15T12:34:00;4.63;;;2.00;;
21550;SDS011;10936;49.836;7.078;2023-04-15T12:36:27;4.60;;;2.10;;
21550;SDS011;10936;49.836;7.078;2023-04-15T12:38:55;5.30;;;2.33;;
21550;SDS011;10936;49.836;7.078;2023-04-15T12:41:21;4.73;;;2.33;;
21550;SDS011;10936;49.836;7.078;2023-04-15T12:43:48;5.07;;;2.10;;
21550;SDS011;10936;49.836;7.078;2023-04-15T12:46:14;3.47;;;2.10;;
21550;SDS011;10936;49.836;7.078;2023-04-15T12:48:40;4.13;;;2.70;;
21550;SDS011;10936;49.836;7.078;2023-04-15T12:51:05;3.13;;;2.13;;
21550;SDS011;10936;49.836;7.078;2023-04-15T12:53:31;7.13;;;2.93;;
21550;SDS011;10936;49.836;7.078;2023-04-15T12:55:56;3.63;;;2.63;;
21550;SDS011;10936;49.836;7.078;2023-04-15T12:58:22;6.67;;;3.27;;
21550;SDS011;10936;49.836;7.078;2023-04-15T13:00:48;6.07;;;3.70;;
21550;SDS011;10936;49.836;7.078;2023-04-15T13:03:14;9.23;;;3.57;;
21550;SDS011;10936;49.836;7.078;2023-04-15T13:05:40;4.57;;;3.30;;
21550;SDS011;10936;49.836;7.078;2023-04-15T13:08:06;6.97;;;3.40;;
21550;SDS011;10936;49.836;7.078;2023-04-15T13:10:32;9.03;;;4.57;;
21550;SDS011;10936;49.836;7.078;2023-04-15T13:13:00;4.97;;;3.73;;
21550;SDS011;10936;49.836;7.078;2023-04-15T13:15:26;10.70;;;5.67;;
21550;SDS011;10936;49.836;7.078;2023-04-15T13:17:51;5.97;;;3.50;;
21550;SDS011;10936;49.836;7.078;2023-04-15T13:20:17;4.97;;;3.13;;
21550;SDS011;10936;49.836;7.078;2023-04-15T13:22:43;7.90;;;3.27;;
21550;SDS011;10936;49.836;7.078;2023-04-15T13:25:09;2.93;;;2.40;;
21550;SDS011;10936;49.836;7.078;2023-04-15T13:27:34;3.90;;;2.20;;
21550;SDS011;10936;49.836;7.078;2023-04-15T13:30:00;3.20;;;2.27;;
21550;SDS011;10936;49.836;7.078;2023-04-15T13:32:26;5.90;;;1.90;;
21550;SDS011;10936;49.836;7.078;2023-04-15T13:34:51;3.27;;;2.00;;
21550;SDS011;10936;49.836;7.078;2023-04-15T13:37:18;2.50;;;1.80;;
21550;SDS011;10936;49.836;7.078;2023-04-15T13:39:44;1.60;;;1.30;;
21550;SDS011;10936;49.836;7.078;2023-04-15T13:42:09;2.00;;;1.50;;
21550;SDS011;10936;49.836;7.078;2023-04-15T13:44:35;1.50;;;1.40;;
21550;SDS011;10936;49.836;7.078;2023-04-15T13:47:00;3.37;;;1.40;;
21550;SDS011;10936;49.836;7.078;2023-04-15T13:49:26;5.10;;;1.67;;
21550;SDS011;10936;49.836;7.078;2023-04-15T13:51:51;4.43;;;1.87;;
21550;SDS011;10936;49.836;7.078;2023-04-15T13:54:17;3.67;;;1.30;;
21550;SDS011;10936;49.836;7.078;2023-04-15T13:56:42;2.23;;;1.40;;
21550;SDS011;10936;49.836;7.078;2023-04-15T13:59:08;1.77;;;1.33;;
21550;SDS011;10936;49.836;7.078;2023-04-15T14:01:34;2.83;;;1.80;;
21550;SDS011;10936;49.836;7.078;2023-04-15T14:04:00;3.23;;;1.60;;
21550;SDS011;10936;49.836;7.078;2023-04-15T14:06:25;5.07;;;1.57;;
21550;SDS011;10936;49.836;7.078;2023-04-15T14:08:52;2.90;;;1.60;;
21550;SDS011;10936;49.836;7.078;2023-04-15T14:11:18;3.53;;;2.23;;
21550;SDS011;10936;49.836;7.078;2023-04-15T14:13:44;3.07;;;1.90;;
21550;SDS011;10936;49.836;7.078;2023-04-15T14:16:09;2.90;;;1.83;;
21550;SDS011;10936;49.836;7.078;2023-04-15T14:18:35;4.93;;;2.60;;
21550;SDS011;10936;49.836;7.078;2023-04-15T14:21:01;5.97;;;2.40;;
21550;SDS011;10936;49.836;7.078;2023-04-15T14:23:27;3.30;;;2.30;;
21550;SDS011;10936;49.836;7.078;2023-04-15T14:25:53;3.40;;;2.40;;
21550;SDS011;10936;49.836;7.078;2023-04-15T14:28:18;3.83;;;2.73;;
21550;SDS011;10936;49.836;7.078;2023-04-15T14:30:44;3.30;;;2.70;;
21550;SDS011;10936;49.836;7.078;2023-04-15T14:33:10;3.33;;;2.70;;
21550;SDS011;10936;49.836;7.078;2023-04-15T14:35:35;3.80;;;3.17;;
21550;SDS011;10936;49.836;7.078;2023-04-15T14:38:01;3.47;;;3.17;;
21550;SDS011;10936;49.836;7.078;2023-04-15T14:40:27;3.70;;;3.07;;
21550;SDS011;10936;49.836;7.078;2023-04-15T14:42:53;3.57;;;3.27;;
21550;SDS011;10936;49.836;7.078;2023-04-15T14:45:18;6.30;;;3.10;;
21550;SDS011;10936;49.836;7.078;2023-04-15T14:47:44;4.50;;;3.60;;
21550;SDS011;10936;49.836;7.078;2023-04-15T14:50:11;3.67;;;3.23;;
21550;SDS011;10936;49.836;7.078;2023-04-15T14:52:36;3.73;;;3.40;;
21550;SDS011;10936;49.836;7.078;2023-04-15T14:55:06;4.63;;;3.90;;
21550;SDS011;10936;49.836;7.078;2023-04-15T14:57:34;3.87;;;3.57;;
21550;SDS011;10936;49.836;7.078;2023-04-15T15:00:00;4.27;;;3.83;;
21550;SDS011;10936;49.836;7.078;2023-04-15T15:02:25;5.87;;;4.40;;
21550;SDS011;10936;49.836;7.078;2023-04-15T15:04:51;5.33;;;4.83;;
21550;SDS011;10936;49.836;7.078;2023-04-15T15:07:16;4.73;;;4.30;;
21550;SDS011;10936;49.836;7.078;2023-04-15T15:09:42;6.30;;;5.00;;
21550;SDS011;10936;49.836;7.078;2023-04-15T15:12:07;4.73;;;4.33;;
21550;SDS011;10936;49.836;7.078;2023-04-15T15:14:33;5.10;;;4.70;;
21550;SDS011;10936;49.836;7.078;2023-04-15T15:16:58;6.73;;;4.93;;
21550;SDS011;10936;49.836;7.078;2023-04-15T15:19:24;7.07;;;4.83;;
21550;SDS011;10936;49.836;7.078;2023-04-15T15:21:50;4.67;;;4.27;;
21550;SDS011;10936;49.836;7.078;2023-04-15T15:24:15;5.10;;;4.60;;
21550;SDS011;10936;49.836;7.078;2023-04-15T15:26:41;5.37;;;4.87;;
21550;SDS011;10936;49.836;7.078;2023-04-15T15:29:07;5.53;;;5.03;;
21550;SDS011;10936;49.836;7.078;2023-04-15T15:31:33;6.37;;;5.77;;
21550;SDS011;10936;49.836;7.078;2023-04-15T15:33:59;7.20;;;6.50;;
21550;SDS011;10936;49.836;7.078;2023-04-15T15:36:25;8.33;;;6.77;;
21550;SDS011;10936;49.836;7.078;2023-04-15T15:38:53;9.10;;;7.17;;
21550;SDS011;10936;49.836;7.078;2023-04-15T15:41:19;8.33;;;7.53;;
21550;SDS011;10936;49.836;7.078;2023-04-15T15:43:45;8.67;;;7.67;;
21550;SDS011;10936;49.836;7.078;2023-04-15T15:46:10;8.97;;;8.03;;
21550;SDS011;10936;49.836;7.078;2023-04-15T15:48:36;11.63;;;10.20;;
21550;SDS011;10936;49.836;7.078;2023-04-15T15:51:01;17.93;;;12.03;;
21550;SDS011;10936;49.836;7.078;2023-04-15T15:53:28;12.20;;;10.70;;
21550;SDS011;10936;49.836;7.078;2023-04-15T15:55:53;13.83;;;12.03;;
21550;SDS011;10936;49.836;7.078;2023-04-15T15:58:19;15.83;;;11.80;;
21550;SDS011;10936;49.836;7.078;2023-04-15T16:00:45;15.23;;;13.53;;
21550;SDS011;10936;49.836;7.078;2023-04-15T16:03:11;14.43;;;12.93;;
21550;SDS011;10936;49.836;7.078;2023-04-15T16:05:37;13.50;;;12.10;;
21550;SDS011;10936;49.836;7.078;2023-04-15T16:08:03;15.47;;;13.57;;
21550;SDS011;10936;49.836;7.078;2023-04-15T16:10:29;16.17;;;14.47;;
21550;SDS011;10936;49.836;7.078;2023-04-15T16:12:54;17.47;;;14.57;;
21550;SDS011;10936;49.836;7.078;2023-04-15T16:15:21;17.53;;;14.40;;
21550;SDS011;10936;49.836;7.078;2023-04-15T16:17:49;16.50;;;14.30;;
21550;SDS011;10936;49.836;7.078;2023-04-15T16:20:15;18.03;;;14.90;;
21550;SDS011;10936;49.836;7.078;2023-04-15T16:22:41;17.67;;;13.20;;
21550;SDS011;10936;49.836;7.078;2023-04-15T16:25:06;15.50;;;13.27;;
21550;SDS011;10936;49.836;7.078;2023-04-15T16:27:32;13.43;;;10.97;;
21550;SDS011;10936;49.836;7.078;2023-04-15T16:29:59;14.47;;;10.20;;
21550;SDS011;10936;49.836;7.078;2023-04-15T16:32:24;13.60;;;10.07;;
21550;SDS011;10936;49.836;7.078;2023-04-15T16:34:51;12.00;;;8.37;;
21550;SDS011;10936;49.836;7.078;2023-04-15T16:37:16;12.90;;;8.70;;
21550;SDS011;10936;49.836;7.078;2023-04-15T16:39:44;11.80;;;7.90;;
21550;SDS011;10936;49.836;7.078;2023-04-15T16:42:09;11.37;;;7.50;;
21550;SDS011;10936;49.836;7.078;2023-04-15T16:44:35;9.73;;;6.90;;
21550;SDS011;10936;49.836;7.078;2023-04-15T16:47:02;8.20;;;6.33;;
21550;SDS011;10936;49.836;7.078;2023-04-15T16:49:28;10.37;;;6.67;;
21550;SDS011;10936;49.836;7.078;2023-04-15T16:51:54;14.97;;;7.40;;
21550;SDS011;10936;49.836;7.078;2023-04-15T16:54:19;8.60;;;6.13;;
21550;SDS011;10936;49.836;7.078;2023-04-15T16:56:45;7.73;;;5.67;;
21550;SDS011;10936;49.836;7.078;2023-04-15T16:59:10;9.37;;;5.77;;
21550;SDS011;10936;49.836;7.078;2023-04-15T17:01:36;7.77;;;4.60;;
21550;SDS011;10936;49.836;7.078;2023-04-15T17:04:02;6.37;;;4.80;;
21550;SDS011;10936;49.836;7.078;2023-04-15T17:06:27;6.57;;;4.37;;
21550;SDS011;10936;49.836;7.078;2023-04-15T17:08:53;7.63;;;4.43;;
21550;SDS011;10936;49.836;7.078;2023-04-15T17:11:19;5.13;;;4.07;;
21550;SDS011;10936;49.836;7.078;2023-04-15T17:13:45;6.77;;;3.80;;
21550;SDS011;10936;49.836;7.078;2023-04-15T17:16:11;6.23;;;4.40;;
21550;SDS011;10936;49.836;7.078;2023-04-15T17:18:36;6.33;;;3.90;;
21550;SDS011;10936;49.836;7.078;2023-04-15T17:21:03;7.27;;;4.27;;
21550;SDS011;10936;49.836;7.078;2023-04-15T17:23:29;7.13;;;4.10;;
21550;SDS011;10936;49.836;7.078;2023-04-15T17:25:55;6.03;;;4.17;;
21550;SDS011;10936;49.836;7.078;2023-04-15T17:28:20;8.60;;;3.77;;
21550;SDS011;10936;49.836;7.078;2023-04-15T17:30:46;8.03;;;3.87;;
21550;SDS011;10936;49.836;7.078;2023-04-15T17:33:12;6.30;;;4.00;;
21550;SDS011;10936;49.836;7.078;2023-04-15T17:35:37;4.63;;;3.70;;
21550;SDS011;10936;49.836;7.078;2023-04-15T17:38:03;7.13;;;3.63;;
21550;SDS011;10936;49.836;7.078;2023-04-15T17:40:29;5.30;;;4.03;;
21550;SDS011;10936;49.836;7.078;2023-04-15T17:42:55;5.97;;;4.23;;
21550;SDS011;10936;49.836;7.078;2023-04-15T17:45:21;7.20;;;3.90;;
21550;SDS011;10936;49.836;7.078;2023-04-15T17:47:47;7.33;;;4.53;;
21550;SDS011;10936;49.836;7.078;2023-04-15T17:50:13;6.30;;;4.50;;
21550;SDS011;10936;49.836;7.078;2023-04-15T17:52:39;5.53;;;4.03;;
21550;SDS011;10936;49.836;7.078;2023-04-15T17:55:05;6.40;;;4.57;;
21550;SDS011;10936;49.836;7.078;2023-04-15T17:57:31;7.03;;;4.30;;
21550;SDS011;10936;49.836;7.078;2023-04-15T17:59:56;6.50;;;3.87;;
21550;SDS011;10936;49.836;7.078;2023-04-15T18:02:22;7.20;;;4.60;;
21550;SDS011;10936;49.836;7.078;2023-04-15T18:04:48;8.90;;;4.30;;
21550;SDS011;10936;49.836;7.078;2023-04-15T18:07:13;6.20;;;4.47;;
21550;SDS011;10936;49.836;7.078;2023-04-15T18:09:39;6.60;;;4.53;;
21550;SDS011;10936;49.836;7.078;2023-04-15T18:12:05;8.03;;;4.93;;
21550;SDS011;10936;49.836;7.078;2023-04-15T18:14:33;7.23;;;4.77;;
21550;SDS011;10936;49.836;7.078;2023-04-15T18:16:59;6.83;;;4.73;;
21550;SDS011;10936;49.836;7.078;2023-04-15T18:19:25;6.33;;;4.47;;
21550;SDS011;10936;49.836;7.078;2023-04-15T18:21:51;9.07;;;4.60;;
21550;SDS011;10936;49.836;7.078;2023-04-15T18:24:17;6.27;;;4.57;;
21550;SDS011;10936;49.836;7.078;2023-04-15T18:26:43;5.90;;;4.60;;
21550;SDS011;10936;49.836;7.078;2023-04-15T18:29:09;5.40;;;4.17;;
21550;SDS011;10936;49.836;7.078;2023-04-15T18:31:34;7.03;;;4.47;;
21550;SDS011;10936;49.836;7.078;2023-04-15T18:34:00;5.87;;;4.50;;
21550;SDS011;10936;49.836;7.078;2023-04-15T18:36:30;8.07;;;4.90;;
21550;SDS011;10936;49.836;7.078;2023-04-15T18:38:56;7.73;;;4.63;;
21550;SDS011;10936;49.836;7.078;2023-04-15T18:41:21;6.40;;;4.50;;
21550;SDS011;10936;49.836;7.078;2023-04-15T18:43:49;8.03;;;4.73;;
21550;SDS011;10936;49.836;7.078;2023-04-15T18:46:15;6.37;;;4.70;;
21550;SDS011;10936;49.836;7.078;2023-04-15T18:48:40;6.00;;;4.80;;
21550;SDS011;10936;49.836;7.078;2023-04-15T18:51:06;7.80;;;4.90;;
21550;SDS011;10936;49.836;7.078;2023-04-15T18:53:32;8.00;;;4.87;;
21550;SDS011;10936;49.836;7.078;2023-04-15T18:55:57;8.03;;;5.43;;
21550;SDS011;10936;49.836;7.078;2023-04-15T18:58:25;9.13;;;5.60;;
21550;SDS011;10936;49.836;7.078;2023-04-15T19:00:51;8.20;;;5.70;;
21550;SDS011;10936;49.836;7.078;2023-04-15T19:03:17;9.03;;;5.97;;
21550;SDS011;10936;49.836;7.078;2023-04-15T19:05:42;11.63;;;6.63;;
21550;SDS011;10936;49.836;7.078;2023-04-15T19:08:08;9.03;;;6.07;;
21550;SDS011;10936;49.836;7.078;2023-04-15T19:10:34;10.37;;;7.80;;
21550;SDS011;10936;49.836;7.078;2023-04-15T19:13:00;10.43;;;7.20;;
21550;SDS011;10936;49.836;7.078;2023-04-15T19:15:26;15.97;;;8.97;;
21550;SDS011;10936;49.836;7.078;2023-04-15T19:17:52;14.53;;;10.37;;
21550;SDS011;10936;49.836;7.078;2023-04-15T19:20:18;11.03;;;8.80;;
21550;SDS011;10936;49.836;7.078;2023-04-15T19:22:44;11.27;;;8.37;;
21550;SDS011;10936;49.836;7.078;2023-04-15T19:25:10;12.87;;;9.13;;
21550;SDS011;10936;49.836;7.078;2023-04-15T19:27:36;13.50;;;9.97;;
21550;SDS011;10936;49.836;7.078;2023-04-15T19:30:02;15.00;;;10.17;;
21550;SDS011;10936;49.836;7.078;2023-04-15T19:32:29;16.30;;;9.03;;
21550;SDS011;10936;49.836;7.078;2023-04-15T19:34:54;14.63;;;9.17;;
21550;SDS011;10936;49.836;7.078;2023-04-15T19:37:20;14.63;;;10.67;;
21550;SDS011;10936;49.836;7.078;2023-04-15T19:39:45;15.13;;;9.57;;
21550;SDS011;10936;49.836;7.078;2023-04-15T19:42:11;13.70;;;9.47;;
21550;SDS011;10936;49.836;7.078;2023-04-15T19:44:37;12.77;;;9.33;;
21550;SDS011;10936;49.836;7.078;2023-04-15T19:47:07;11.87;;;9.43;;
21550;SDS011;10936;49.836;7.078;2023-04-15T19:49:33;13.33;;;9.47;;
21550;SDS011;10936;49.836;7.078;2023-04-15T19:51:59;20.37;;;10.17;;
21550;SDS011;10936;49.836;7.078;2023-04-15T19:54:24;15.13;;;10.53;;
21550;SDS011;10936;49.836;7.078;2023-04-15T19:56:50;13.67;;;9.73;;
21550;SDS011;10936;49.836;7.078;2023-04-15T19:59:16;12.23;;;9.17;;
21550;SDS011;10936;49.836;7.078;2023-04-15T20:01:42;13.03;;;10.13;;
21550;SDS011;10936;49.836;7.078;2023-04-15T20:04:07;11.80;;;10.00;;
21550;SDS011;10936;49.836;7.078;2023-04-15T20:06:33;24.00;;;15.57;;
21550;SDS011;10936;49.836;7.078;2023-04-15T20:08:59;12.57;;;9.37;;